Time;durP1;ratioP1;P1;durP2;ratioP2;P2;SDS_P1;SDS_P2;PMS_P1;PMS_P2;Temp;Humidity;BMP_temperature;BMP_pressure;BME280_temperature;BME280_humidity;BME280_pressure;Samples;Min_cycle;Max_cycle;Signal;HPM_P1;HPM_P2
2022/06/16 00:00:30;;;;;;;6.70;6.00;;;;;;;18.29;60.74;101258.91;6025705;23;20455;-68
2022/06/16 00:02:56;;;;;;;5.70;5.40;;;;;;;18.19;61.42;101241.13;6040885;23;20512;-68
2022/06/16 00:05:26;;;;;;;5.28;5.07;;;;;;;18.08;61.68;101256.06;6082644;23;20056;-73
2022/06/16 00:07:53;;;;;;;5.78;5.43;;;;;;;17.86;61.48;101224.97;6048794;23;20086;-72
2022/06/16 00:10:20;;;;;;;6.20;5.85;;;;;;;17.78;62.24;101216.69;6077972;23;20225;-74
2022/06/16 00:12:47;;;;;;;5.75;5.40;;;;;;;17.91;63.24;101267.09;6080649;23;20010;-71
2022/06/16 00:15:17;;;;;;;5.25;4.97;;;;;;;17.83;63.14;101259.69;6049996;23;20412;-75
2022/06/16 00:17:44;;;;;;;5.68;5.38;;;;;;;17.65;63.64;101235.31;6061097;23;20018;-72
2022/06/16 00:20:11;;;;;;;7.60;7.20;;;;;;;17.64;63.94;101254.88;6048191;23;20089;-75
2022/06/16 00:22:38;;;;;;;5.72;5.43;;;;;;;17.40;64.44;101222.13;6050808;23;20018;-74
2022/06/16 00:25:05;;;;;;;6.47;5.88;;;;;;;17.54;63.96;101246.72;6077370;23;20427;-72
2022/06/16 00:27:32;;;;;;;5.38;5.18;;;;;;;17.50;64.64;101236.41;6083726;23;20029;-72
2022/06/16 00:30:00;;;;;;;5.60;5.30;;;;;;;17.63;64.71;101262.94;6063268;23;20108;-72
2022/06/16 00:32:26;;;;;;;5.68;5.38;;;;;;;17.61;65.12;101267.50;6085281;23;20046;-73
2022/06/16 00:34:53;;;;;;;5.55;5.25;;;;;;;17.39;65.37;101250.47;6058402;23;20431;-74
2022/06/16 00:37:19;;;;;;;5.78;5.47;;;;;;;17.43;65.78;101264.38;6084149;23;20033;-74
2022/06/16 00:39:46;;;;;;;5.30;5.00;;;;;;;17.41;65.75;101261.81;6057908;23;20054;-73
2022/06/16 00:42:22;;;;;;;5.30;5.10;;;;;;;17.25;65.81;101232.91;6040999;23;20022;-74
2022/06/16 00:44:51;;;;;;;5.72;5.32;;;;;;;17.38;66.74;101275.34;6091545;23;20026;-73
2022/06/16 00:47:20;;;;;;;6.82;6.45;;;;;;;16.38;66.65;101102.09;6051730;23;20393;-77
2022/06/16 00:49:49;;;;;;;5.50;5.28;;;;;;;17.26;67.13;101252.31;6083531;23;20464;-73
2022/06/16 00:52:20;;;;;;;7.55;7.15;;;;;;;17.33;66.08;101269.50;6047781;23;20639;-73
2022/06/16 00:54:53;;;;;;;5.43;5.18;;;;;;;17.17;66.86;101245.03;6081557;23;20037;-72
2022/06/16 00:57:25;;;;;;;;;;;;;;;17.23;67.38;101269.31;6041872;23;20248;-71
2022/06/16 00:59:52;;;;;;;5.40;5.20;;;;;;;16.88;66.68;101219.63;6075186;23;19991;-70
2022/06/16 01:02:22;;;;;;;6.60;6.20;;;;;;;16.80;67.44;101206.03;6051524;23;20537;-71
2022/06/16 01:04:51;;;;;;;5.43;5.13;;;;;;;16.84;67.87;101225.22;6076951;23;20018;-73
2022/06/16 01:07:32;;;;;;;6.72;6.43;;;;;;;16.98;68.01;101262.25;6057837;23;20014;-67
2022/06/16 01:09:59;;;;;;;4.95;4.75;;;;;;;17.10;67.75;101290.56;6067285;23;20045;-68
2022/06/16 01:15:32;;;;;;;6.72;6.43;;;;;;;17.12;67.23;101303.72;6042985;23;20019;-67
2022/06/16 01:18:28;;;;;;;4.95;4.75;;;;;;;17.06;67.62;101291.72;6082782;23;20032;-69
2022/06/16 01:21:05;;;;;;;5.50;5.20;;;;;;;17.06;67.00;101288.19;6048991;23;20114;-67
2022/06/16 01:23:56;;;;;;;5.78;5.38;;;;;;;17.02;67.89;101290.25;6076875;23;20046;-69
2022/06/16 01:26:26;;;;;;;5.75;5.50;;;;;;;16.99;67.24;101293.09;6021364;23;20022;-67
2022/06/16 01:29:11;;;;;;;5.22;5.00;;;;;;;16.94;67.26;101289.94;6054374;23;20088;-67
2022/06/16 01:31:56;;;;;;;5.22;5.03;;;;;;;16.87;67.66;101286.00;6053412;23;20162;-67
2022/06/16 01:34:45;;;;;;;5.20;5.00;;;;;;;16.82;67.57;101291.63;6081778;23;20448;-67
2022/06/16 01:37:22;;;;;;;6.65;6.35;;;;;;;16.78;67.47;101297.19;6048654;23;20226;-67
2022/06/16 01:40:16;;;;;;;5.72;5.28;;;;;;;16.32;67.64;101227.00;6079189;23;20337;-67
2022/06/16 01:42:53;;;;;;;;;;;;;;;16.65;68.28;101299.84;6053293;23;20042;-67
2022/06/16 01:45:28;;;;;;;5.85;5.55;;;;;;;16.59;68.57;101309.06;6079710;23;20263;-68
2022/06/16 01:47:58;;;;;;;5.00;4.80;;;;;;;16.55;68.60;101310.22;6061810;23;20032;-67
2022/06/16 01:50:31;;;;;;;6.10;5.80;;;;;;;16.52;68.41;101307.78;6080503;23;20358;-67
2022/06/16 01:53:06;;;;;;;5.05;4.85;;;;;;;16.09;69.02;101257.69;6016357;23;20461;-71
2022/06/16 01:55:39;;;;;;;5.22;5.03;;;;;;;16.24;68.28;101274.34;6061840;23;20045;-71
2022/06/16 01:58:31;;;;;;;6.18;5.82;;;;;;;16.40;68.25;101298.00;6050598;23;20471;-73
2022/06/16 02:01:01;;;;;;;5.18;4.97;;;;;;;16.29;69.17;101291.63;6066713;23;20026;-70
2022/06/16 02:03:31;;;;;;;5.07;4.88;;;;;;;16.29;69.42;101307.50;6053902;23;20044;-72
2022/06/16 02:06:22;;;;;;;5.50;5.20;;;;;;;16.17;69.48;101295.09;6054641;23;20021;-73
2022/06/16 02:08:53;;;;;;;5.60;5.30;;;;;;;15.99;70.36;101285.72;6048040;23;20026;-71
2022/06/16 02:11:28;;;;;;;6.22;5.93;;;;;;;16.11;70.32;101308.72;6081283;23;20529;-70
2022/06/16 02:14:00;;;;;;;5.30;5.10;;;;;;;16.07;70.51;101310.72;6026905;23;20303;-70
2022/06/16 02:16:30;;;;;;;5.18;4.97;;;;;;;16.04;70.87;101323.34;6077400;23;20102;-72
2022/06/16 02:18:59;;;;;;;5.00;4.80;;;;;;;16.00;70.53;101327.13;6051023;23;20022;-71
2022/06/16 02:21:34;;;;;;;5.45;5.15;;;;;;;15.97;70.67;101330.81;6080935;23;20017;-69
2022/06/16 02:24:03;;;;;;;5.20;5.00;;;;;;;15.97;70.08;101336.09;6048457;23;20034;-74
2022/06/16 02:26:31;;;;;;;5.20;5.00;;;;;;;15.89;70.97;101320.72;6081196;23;20024;-71
2022/06/16 02:28:59;;;;;;;5.28;5.03;;;;;;;15.97;70.06;101333.47;6057843;23;20030;-71
2022/06/16 02:32:11;;;;;;;5.10;4.90;;;;;;;14.74;69.38;101141.09;6046983;23;20014;-72
2022/06/16 02:34:57;;;;;;;5.00;4.80;;;;;;;15.92;69.26;101325.81;6012392;23;20016;-74
2022/06/16 02:37:55;;;;;;;5.00;4.80;;;;;;;15.85;69.30;101327.16;6050821;23;20034;-71
2022/06/16 02:40:46;;;;;;;6.05;5.75;;;;;;;15.78;69.92;101333.81;6072357;23;20024;-71
2022/06/16 02:43:29;;;;;;;6.25;5.88;;;;;;;15.74;69.21;101332.31;6060785;23;20532;-72
2022/06/16 02:46:07;;;;;;;;;;;;;;;15.67;70.01;101338.88;6086369;23;20086;-71
2022/06/16 02:48:48;;;;;;;5.25;5.05;;;;;;;15.58;70.05;101336.84;6072223;23;19910;-72
2022/06/16 02:51:17;;;;;;;6.53;6.22;;;;;;;15.51;70.05;101331.06;6043362;23;20111;-72
2022/06/16 02:56:41;;;;;;;4.70;4.50;;;;;;;15.36;70.86;101339.03;6084312;23;20057;-72
2022/06/16 02:59:13;;;;;;;6.10;5.80;;;;;;;15.29;70.70;101332.41;6047698;23;20015;-72
2022/06/16 03:01:40;;;;;;;4.78;4.57;;;;;;;15.08;70.38;101317.88;6072286;23;20139;-70
2022/06/16 03:04:10;;;;;;;6.43;6.13;;;;;;;15.18;70.74;101334.88;6050519;23;20076;-73
2022/06/16 03:06:37;;;;;;;4.88;4.68;;;;;;;15.10;70.45;101339.78;6052162;23;20526;-71
2022/06/16 03:09:04;;;;;;;5.40;5.18;;;;;;;15.00;70.77;101331.56;6056001;23;20053;-73
2022/06/16 03:11:33;;;;;;;5.38;5.07;;;;;;;14.05;70.46;101190.16;6078653;23;20470;-71
2022/06/16 03:14:00;;;;;;;5.00;4.80;;;;;;;14.95;70.60;101337.13;6054491;23;20030;-72
2022/06/16 03:16:27;;;;;;;5.43;5.13;;;;;;;14.94;70.29;101348.63;6077758;23;20029;-72
2022/06/16 03:18:54;;;;;;;5.20;4.97;;;;;;;14.93;71.18;101351.34;6049490;23;20046;-71
2022/06/16 03:21:21;;;;;;;5.97;5.68;;;;;;;14.79;70.72;101328.41;6081128;23;20018;-71
2022/06/16 03:23:47;;;;;;;4.90;4.70;;;;;;;14.96;70.42;101353.84;6051585;23;20068;-72
2022/06/16 03:26:14;;;;;;;6.18;5.88;;;;;;;14.93;70.90;101354.88;6083280;23;20158;-70
2022/06/16 03:28:42;;;;;;;4.95;4.75;;;;;;;14.75;70.97;101333.03;6049816;23;20348;-72
2022/06/16 03:31:09;;;;;;;6.32;6.03;;;;;;;14.88;71.35;101353.44;6073291;23;20097;-65
2022/06/16 03:33:36;;;;;;;5.00;4.70;;;;;;;14.75;70.82;101327.75;6079362;23;20045;-71
2022/06/16 03:36:03;;;;;;;5.18;4.93;;;;;;;14.73;70.67;101326.13;6075483;23;20022;-71
2022/06/16 03:41:05;;;;;;;5.78;5.50;;;;;;;13.91;69.85;101205.94;6077332;23;20129;-70
2022/06/16 03:43:31;;;;;;;4.88;4.68;;;;;;;14.91;70.67;101379.66;6053973;23;20042;-67
2022/06/16 03:45:58;;;;;;;4.80;4.60;;;;;;;14.88;70.66;101380.72;6069849;23;20270;-72
2022/06/16 03:48:24;;;;;;;4.80;4.60;;;;;;;14.89;70.84;101384.19;6073916;23;20182;-67
2022/06/16 03:50:51;;;;;;;5.00;4.80;;;;;;;14.68;70.77;101363.41;6065866;23;20038;-66
2022/06/16 03:53:17;;;;;;;5.97;5.68;;;;;;;14.88;70.78;101391.28;6067985;23;20263;-66
2022/06/16 03:55:44;;;;;;;4.72;4.53;;;;;;;14.70;71.32;101360.66;6069665;23;20014;-69
2022/06/16 03:58:13;;;;;;;6.05;5.75;;;;;;;14.55;71.17;101325.38;6029163;23;20038;-66
2022/06/16 04:00:40;;;;;;;4.75;4.55;;;;;;;15.03;70.83;101402.72;6065210;23;20020;-69
2022/06/16 04:05:53;;;;;;;4.97;4.68;;;;;;;15.14;71.11;101410.88;6054046;23;20381;-72
2022/06/16 04:08:20;;;;;;;5.47;5.18;;;;;;;15.18;71.02;101403.63;6047360;23;20253;-67
2022/06/16 04:10:47;;;;;;;4.72;4.53;;;;;;;15.15;70.19;101387.91;6081931;23;20026;-66
2022/06/16 04:13:15;;;;;;;6.60;6.30;;;;;;;15.43;68.03;101397.66;6050398;23;20018;-65
2022/06/16 04:15:49;;;;;;;4.78;4.57;;;;;;;15.47;68.49;101407.13;6082675;23;20021;-67
2022/06/16 04:18:19;;;;;;;6.55;6.20;;;;;;;15.98;66.55;101408.44;6038780;23;20014;-66
2022/06/16 04:20:47;;;;;;;4.97;4.78;;;;;;;16.32;63.65;101343.56;6085131;23;20355;-67
2022/06/16 04:23:13;;;;;;;6.03;5.72;;;;;;;17.36;61.48;101417.88;6048050;23;20018;-67
2022/06/16 04:25:40;;;;;;;4.88;4.68;;;;;;;17.74;59.05;101425.78;6077434;23;20025;-66
2022/06/16 04:28:07;;;;;;;5.80;5.50;;;;;;;17.66;58.02;101390.97;6046581;23;20014;-67
2022/06/16 04:30:34;;;;;;;4.90;4.70;;;;;;;17.56;57.54;101400.56;6079113;23;20063;-67
2022/06/16 04:33:00;;;;;;;5.53;5.22;;;;;;;17.97;56.54;101436.59;6043331;23;20030;-67
2022/06/16 04:35:27;;;;;;;5.40;5.15;;;;;;;18.02;55.07;101415.88;6076704;23;20399;-67
2022/06/16 04:37:54;;;;;;;5.07;4.85;;;;;;;18.54;54.16;101446.63;6081090;23;20395;-68
2022/06/16 04:40:21;;;;;;;5.93;5.63;;;;;;;18.87;53.44;101437.09;6040038;23;20366;-66
2022/06/16 04:42:48;;;;;;;5.10;4.90;;;;;;;18.85;52.67;101432.88;6071006;23;20014;-71
2022/06/16 04:45:14;;;;;;;6.50;6.20;;;;;;;19.19;52.48;101411.69;6051986;23;20018;-71
2022/06/16 04:47:41;;;;;;;5.15;4.95;;;;;;;19.80;49.96;101435.31;6047617;23;20183;-71
2022/06/16 04:50:10;;;;;;;6.70;6.25;;;;;;;20.15;48.44;101429.84;6071850;23;20041;-73
2022/06/16 04:52:36;;;;;;;5.65;5.35;;;;;;;19.57;49.14;101429.13;6050383;23;20392;-71
2022/06/16 04:55:03;;;;;;;5.47;5.25;;;;;;;19.34;49.85;101434.41;6085462;23;20032;-73
2022/06/16 04:57:34;;;;;;;6.00;5.70;;;;;;;19.26;50.93;101437.69;6034495;23;20040;-73
2022/06/16 05:00:01;;;;;;;6.38;5.43;;;;;;;19.03;50.63;101443.94;6090101;23;20025;-74
2022/06/16 05:02:47;;;;;;;5.53;5.22;;;;;;;19.05;52.64;101447.31;6056101;23;20093;-71
2022/06/16 05:05:14;;;;;;;7.85;7.15;;;;;;;19.54;48.86;101451.50;6084706;23;20029;-67
2022/06/16 05:07:41;;;;;;;5.50;5.20;;;;;;;19.68;47.25;101450.41;6060582;23;20463;-73
2022/06/16 05:10:08;;;;;;;5.68;5.38;;;;;;;19.54;47.57;101440.84;6054161;23;20010;-73
2022/06/16 05:12:35;;;;;;;5.80;5.50;;;;;;;19.19;48.56;101433.81;6090720;23;20037;-71
2022/06/16 05:15:01;;;;;;;5.68;5.38;;;;;;;18.61;50.43;101399.16;6055938;23;20137;-72
2022/06/16 05:17:28;;;;;;;5.80;5.30;;;;;;;19.51;49.41;101467.72;6094581;23;20385;-71
2022/06/16 05:19:54;;;;;;;5.47;5.28;;;;;;;19.71;49.06;101468.88;6058283;23;20109;-72
2022/06/16 05:22:20;;;;;;;6.00;5.70;;;;;;;19.47;47.88;101397.06;6074949;23;20016;-67
2022/06/16 05:24:47;;;;;;;5.63;5.30;;;;;;;20.04;47.36;101473.31;6066985;23;20026;-69
2022/06/16 05:27:15;;;;;;;7.03;6.72;;;;;;;19.44;47.34;101435.41;6048170;23;20014;-66
2022/06/16 05:29:43;;;;;;;5.35;5.10;;;;;;;19.87;46.52;101448.03;6059892;23;20039;-67
2022/06/16 05:32:10;;;;;;;6.65;6.35;;;;;;;20.08;47.13;101505.91;6055054;23;20431;-67
2022/06/16 05:34:37;;;;;;;5.80;5.50;;;;;;;19.69;46.96;101468.94;6057240;23;20203;-67
2022/06/16 05:37:05;;;;;;;5.95;5.65;;;;;;;19.90;46.55;101500.22;6060225;23;20224;-67
2022/06/16 05:39:31;;;;;;;6.00;5.70;;;;;;;20.64;45.44;101502.31;6027224;23;20081;-68
2022/06/16 05:41:58;;;;;;;6.10;5.60;;;;;;;20.44;45.05;101512.75;6060489;23;20014;-67
2022/06/16 05:44:24;;;;;;;6.00;5.70;;;;;;;20.58;44.76;101484.97;6081679;23;20198;-67
2022/06/16 05:46:51;;;;;;;5.55;5.28;;;;;;;20.50;45.55;101514.91;6056171;23;20014;-67
2022/06/16 05:49:18;;;;;;;6.88;6.57;;;;;;;19.50;43.69;101356.88;6066598;23;20114;-67
2022/06/16 05:51:45;;;;;;;5.53;5.32;;;;;;;20.55;44.74;101519.91;6080448;23;20014;-67
2022/06/16 05:54:11;;;;;;;7.22;6.90;;;;;;;19.56;46.56;101486.84;6067242;23;20212;-68
2022/06/16 05:56:38;;;;;;;5.88;5.50;;;;;;;19.80;45.92;101512.56;6089421;23;20349;-72
2022/06/16 05:59:04;;;;;;;6.35;6.05;;;;;;;19.65;45.66;101475.50;6053607;23;20026;-73
2022/06/16 06:01:36;;;;;;;5.38;5.10;;;;;;;19.92;46.23;101485.84;6089974;23;20521;-70
2022/06/16 06:04:03;;;;;;;6.00;5.75;;;;;;;19.89;45.05;101494.06;6058014;23;20046;-74
2022/06/16 06:06:30;;;;;;;5.65;5.35;;;;;;;19.92;45.65;101487.63;6104228;23;20041;-74
2022/06/16 06:17:21;;;;;;;6.95;6.55;;;;;;;20.71;44.70;101523.03;6048235;23;20066;-68
2022/06/16 06:19:49;;;;;;;5.07;4.88;;;;;;;21.23;43.53;101531.22;6052017;23;20081;-68
2022/06/16 06:22:19;;;;;;;6.95;6.65;;;;;;;21.39;42.08;101532.56;6080318;23;20325;-68
2022/06/16 06:25:04;;;;;;;5.60;5.32;;;;;;;21.21;43.09;101541.16;6062285;23;20024;-68
2022/06/16 06:27:40;;;;;;;5.50;5.30;;;;;;;20.99;43.20;101544.78;6068362;23;20020;-73
2022/06/16 06:30:21;;;;;;;6.43;6.03;;;;;;;20.39;45.27;101533.63;6045764;23;20495;-74
2022/06/16 06:32:48;;;;;;;5.60;5.30;;;;;;;20.09;45.35;101547.59;6044213;23;20137;-72
2022/06/16 06:35:16;;;;;;;6.90;6.60;;;;;;;19.77;45.93;101537.63;6081239;23;20234;-72
2022/06/16 06:37:43;;;;;;;5.47;5.22;;;;;;;19.60;47.24;101560.19;6042251;23;20045;-68
2022/06/16 06:40:19;;;;;;;7.03;6.72;;;;;;;19.52;46.58;101560.81;6069712;23;20022;-66
2022/06/16 06:42:45;;;;;;;5.72;5.43;;;;;;;19.47;47.82;101519.53;6048169;23;20021;-68
2022/06/16 06:45:12;;;;;;;7.15;6.65;;;;;;;19.72;46.93;101555.78;6080775;23;20261;-68
2022/06/16 06:47:39;;;;;;;5.32;5.10;;;;;;;19.80;47.60;101549.84;6052396;23;20037;-68
2022/06/16 06:50:06;;;;;;;6.22;5.93;;;;;;;19.83;46.41;101553.13;6077816;23;20046;-69
2022/06/16 06:52:32;;;;;;;6.05;5.68;;;;;;;19.88;46.58;101561.59;6050592;23;20473;-68
2022/06/16 06:54:58;;;;;;;5.50;5.20;;;;;;;19.49;47.88;101530.91;6085113;23;20459;-68
2022/06/16 06:57:28;;;;;;;6.03;5.72;;;;;;;19.90;47.95;101558.81;6030931;23;20022;-68
2022/06/16 06:59:55;;;;;;;5.40;5.20;;;;;;;19.92;48.38;101564.88;6080874;23;20451;-68
2022/06/16 07:02:22;;;;;;;5.50;5.30;;;;;;;20.08;46.88;101570.69;6055928;23;20511;-72
2022/06/16 07:04:48;;;;;;;5.10;4.90;;;;;;;19.81;46.49;101581.72;6080533;23;20202;-68
2022/06/16 07:07:19;;;;;;;6.78;6.40;;;;;;;19.77;46.67;101579.41;6065120;23;20480;-74
2022/06/16 07:09:45;;;;;;;5.70;5.40;;;;;;;19.83;47.00;101584.25;6082431;23;20073;-71
2022/06/16 07:12:13;;;;;;;6.93;6.53;;;;;;;19.46;47.60;101592.34;6054736;23;20547;-68
2022/06/16 07:14:46;;;;;;;5.50;5.22;;;;;;;19.60;47.81;101588.66;6080665;23;20081;-68
2022/06/16 07:17:15;;;;;;;6.78;6.38;;;;;;;19.85;48.02;101591.16;6071144;23;20486;-68
2022/06/16 07:19:42;;;;;;;5.60;5.30;;;;;;;19.50;47.75;101527.25;6031840;23;20030;-68
2022/06/16 07:22:09;;;;;;;6.10;5.80;;;;;;;18.87;46.69;101425.63;6053255;23;20256;-68
2022/06/16 07:24:36;;;;;;;5.35;5.13;;;;;;;19.75;47.46;101592.84;6054925;23;20038;-71
2022/06/16 07:27:03;;;;;;;5.38;5.15;;;;;;;19.91;47.41;101556.06;6077294;23;20210;-74
2022/06/16 07:29:30;;;;;;;5.40;5.10;;;;;;;20.02;46.23;101597.00;6044905;23;20421;-73
2022/06/16 07:32:03;;;;;;;5.63;5.32;;;;;;;19.83;48.05;101571.78;6076414;23;20647;-73
2022/06/16 07:34:29;;;;;;;6.30;5.25;;;;;;;19.87;46.70;101564.41;6079717;23;20373;-70
2022/06/16 07:36:56;;;;;;;6.25;5.85;;;;;;;20.27;46.90;101586.09;6054064;23;20007;-70
2022/06/16 07:39:25;;;;;;;5.18;4.97;;;;;;;20.64;46.31;101604.53;6078084;23;20097;-69
2022/06/16 07:41:52;;;;;;;5.25;5.05;;;;;;;20.41;45.56;101606.34;6046655;23;20085;-67
2022/06/16 07:44:19;;;;;;;6.85;6.55;;;;;;;20.63;45.67;101615.34;6084073;23;20014;-67
2022/06/16 07:46:49;;;;;;;5.40;5.20;;;;;;;20.83;45.12;101630.56;6079432;23;20103;-67
2022/06/16 07:49:22;;;;;;;8.13;7.65;;;;;;;20.63;44.79;101626.00;6069544;23;20270;-71
2022/06/16 07:51:51;;;;;;;5.53;5.22;;;;;;;20.74;45.75;101630.47;6029138;23;20081;-70
2022/06/16 07:54:18;;;;;;;7.05;6.70;;;;;;;20.73;44.91;101624.28;6077758;23;20010;-67
2022/06/16 07:57:04;;;;;;;5.90;5.60;;;;;;;19.64;45.71;101595.44;6049097;23;20022;-66
2022/06/16 07:59:31;;;;;;;5.70;5.40;;;;;;;20.16;46.35;101628.75;6076614;23;20032;-67
2022/06/16 08:01:57;;;;;;;5.60;5.30;;;;;;;19.93;44.96;101607.41;6076261;23;20077;-67
2022/06/16 08:04:24;;;;;;;5.25;5.05;;;;;;;20.43;45.88;101624.88;6058133;23;20033;-67
2022/06/16 08:06:51;;;;;;;5.38;5.18;;;;;;;19.06;45.28;101414.41;6049738;23;20093;-72
2022/06/16 08:09:17;;;;;;;7.18;6.78;;;;;;;20.74;45.42;101627.78;6050080;23;20026;-70
2022/06/16 08:14:30;;;;;;;5.68;5.38;;;;;;;19.72;43.85;101465.22;6073204;23;20089;-67
2022/06/16 08:16:58;;;;;;;6.13;5.82;;;;;;;20.81;43.63;101645.84;6053607;23;20018;-67
2022/06/16 08:19:24;;;;;;;5.30;5.10;;;;;;;20.33;43.33;101617.59;6065517;23;20222;-67
2022/06/16 08:21:51;;;;;;;5.80;5.50;;;;;;;20.50;43.62;101634.09;6077773;23;20026;-67
2022/06/16 08:24:18;;;;;;;6.63;6.28;;;;;;;20.44;43.20;101653.22;6076382;23;20057;-71
2022/06/16 08:26:45;;;;;;;5.30;5.10;;;;;;;20.65;43.98;101645.41;6048374;23;20483;-67
2022/06/16 08:29:15;;;;;;;6.85;6.55;;;;;;;20.59;41.92;101641.41;6073760;23;20089;-69
2022/06/16 08:31:42;;;;;;;5.40;5.20;;;;;;;20.57;42.54;101616.63;6022342;23;20039;-69
2022/06/16 08:34:09;;;;;;;6.95;6.55;;;;;;;20.46;43.05;101603.28;6077017;23;20022;-66
2022/06/16 08:36:36;;;;;;;6.30;5.43;;;;;;;21.10;44.13;101664.00;6050157;23;20025;-68
2022/06/16 08:39:05;;;;;;;17.98;17.08;;;;;;;21.40;42.80;101667.78;5997725;23;20497;-66
2022/06/16 08:41:45;;;;;;;5.40;5.20;;;;;;;21.38;42.16;101670.56;6047233;23;20022;-67
2022/06/16 08:44:24;;;;;;;7.13;6.72;;;;;;;20.91;41.24;101681.50;6046129;23;20071;-67
2022/06/16 08:47:06;;;;;;;5.20;5.00;;;;;;;20.96;41.17;101667.78;6083060;23;20499;-69
2022/06/16 08:49:58;;;;;;;5.65;5.35;;;;;;;21.45;39.65;101670.97;6047108;23;20702;-69
2022/06/16 08:52:45;;;;;;;5.50;5.30;;;;;;;21.55;40.30;101655.88;6075312;23;20605;-67
2022/06/16 08:55:20;;;;;;;6.80;6.50;;;;;;;21.51;39.13;101668.63;6050508;23;20073;-68
2022/06/16 08:58:03;;;;;;;6.00;5.70;;;;;;;21.25;39.27;101664.56;6056415;23;20250;-67
2022/06/16 09:00:38;;;;;;;5.70;5.40;;;;;;;21.74;39.09;101657.00;6054597;23;20022;-71
2022/06/16 09:03:26;;;;;;;5.80;5.55;;;;;;;21.44;39.23;101678.09;6011039;23;20018;-70
2022/06/16 09:05:55;;;;;;;5.80;5.50;;;;;;;21.39;38.29;101671.41;6051722;23;20468;-67
2022/06/16 09:08:34;;;;;;;5.65;5.35;;;;;;;21.25;37.00;101677.91;6092167;23;20037;-67
2022/06/16 09:11:22;;;;;;;5.30;5.10;;;;;;;21.18;39.16;101664.22;6055520;23;20085;-67
2022/06/16 09:14:04;;;;;;;5.30;5.10;;;;;;;21.51;38.62;101633.06;6074855;23;20208;-67
2022/06/16 09:16:58;;;;;;;5.57;5.38;;;;;;;21.58;39.07;101660.94;6031888;23;20093;-66
2022/06/16 09:19:53;;;;;;;5.85;5.55;;;;;;;21.61;37.60;101691.88;6073496;23;20013;-66
2022/06/16 09:22:27;;;;;;;8.43;8.00;;;;;;;21.79;37.15;101694.84;6039097;23;20649;-67
2022/06/16 09:25:10;;;;;;;5.45;5.20;;;;;;;21.49;36.33;101707.13;6071561;23;20487;-67
2022/06/16 09:27:46;;;;;;;5.28;5.03;;;;;;;21.46;36.39;101705.53;6072195;23;20104;-70
2022/06/16 09:30:19;;;;;;;6.90;6.60;;;;;;;21.35;37.14;101628.13;6055957;23;20420;-73
2022/06/16 09:32:53;;;;;;;;;;;;;;;21.90;37.41;101713.50;6048797;23;20026;-67
2022/06/16 09:35:34;;;;;;;6.38;6.07;;;;;;;21.79;37.66;101700.19;6080182;23;19988;-67
2022/06/16 09:38:24;;;;;;;5.78;5.47;;;;;;;21.73;37.73;101711.38;6043531;23;20042;-67
2022/06/16 09:41:00;;;;;;;5.40;5.20;;;;;;;21.77;38.35;101719.03;6099561;23;20034;-67
2022/06/16 09:43:46;;;;;;;5.50;5.22;;;;;;;21.77;37.33;101660.25;6085235;23;21404;-67
2022/06/16 09:46:23;;;;;;;7.38;6.97;;;;;;;21.97;37.13;101719.16;6049053;23;20221;-67
2022/06/16 09:49:00;;;;;;;5.60;5.30;;;;;;;22.20;38.44;101699.34;6056100;23;20030;-67
2022/06/16 09:51:31;;;;;;;5.30;5.10;;;;;;;22.65;36.11;101717.78;6053578;23;20273;-68
2022/06/16 09:54:09;;;;;;;5.60;5.40;;;;;;;22.45;36.77;101711.50;6080836;23;20030;-68
2022/06/16 09:56:42;;;;;;;5.97;5.53;;;;;;;22.43;36.34;101699.22;6051388;23;20018;-67
2022/06/16 09:59:19;;;;;;;6.80;6.50;;;;;;;22.77;37.45;101742.63;6083042;23;20349;-67
2022/06/16 10:01:55;;;;;;;5.30;5.10;;;;;;;22.97;37.13;101737.34;6052874;23;20399;-67
2022/06/16 10:04:22;;;;;;;6.95;6.55;;;;;;;23.25;37.10;101743.78;6081889;23;20151;-67
2022/06/16 10:07:14;;;;;;;5.40;5.20;;;;;;;23.28;36.64;101744.38;6050798;23;20511;-67
2022/06/16 10:10:02;;;;;;;5.82;5.53;;;;;;;23.12;35.34;101754.75;6085733;23;20314;-67
2022/06/16 10:12:38;;;;;;;5.60;5.40;;;;;;;23.58;35.68;101752.47;6043145;23;20021;-67
2022/06/16 10:15:13;;;;;;;6.85;6.45;;;;;;;22.84;34.19;101631.38;6078456;23;20014;-67
2022/06/16 10:17:42;;;;;;;5.40;5.20;;;;;;;23.65;33.36;101745.53;6056383;23;20065;-67
2022/06/16 10:20:10;;;;;;;6.68;6.38;;;;;;;23.83;34.49;101762.66;6053062;23;20093;-67
2022/06/16 10:22:40;;;;;;;5.60;5.30;;;;;;;24.25;32.47;101765.00;6065506;23;20038;-67
2022/06/16 10:25:14;;;;;;;6.00;5.72;;;;;;;24.33;32.43;101769.66;6052177;23;20029;-75
2022/06/16 10:27:49;;;;;;;5.40;5.10;;;;;;;23.85;32.24;101776.78;6081021;23;20024;-67
2022/06/16 10:30:34;;;;;;;6.70;6.40;;;;;;;23.39;34.58;101770.19;6053947;23;20018;-67
2022/06/16 10:33:22;;;;;;;5.35;5.15;;;;;;;23.29;34.07;101708.59;6081347;23;20441;-66
2022/06/16 10:36:12;;;;;;;5.30;5.10;;;;;;;23.22;34.38;101754.78;6046446;23;20022;-67
2022/06/16 10:38:45;;;;;;;5.53;5.28;;;;;;;23.13;34.81;101767.16;6078758;23;20009;-67
2022/06/16 10:41:25;;;;;;;6.75;6.45;;;;;;;23.25;34.80;101759.84;6040974;23;20090;-68
2022/06/16 10:43:54;;;;;;;5.38;5.18;;;;;;;22.83;34.99;101693.91;6078846;23;20030;-67
2022/06/16 10:46:26;;;;;;;6.40;6.10;;;;;;;23.44;34.58;101759.06;6052988;23;20011;-73
2022/06/16 10:48:56;;;;;;;5.63;5.32;;;;;;;23.29;32.92;101756.78;6075972;23;20400;-73
2022/06/16 10:51:26;;;;;;;5.90;5.60;;;;;;;23.18;34.03;101746.19;6050668;23;20082;-74
2022/06/16 10:54:28;;;;;;;5.45;5.20;;;;;;;23.26;34.52;101759.72;6080932;23;20037;-68
2022/06/16 10:57:17;;;;;;;5.40;5.20;;;;;;;23.64;33.80;101751.91;6021256;23;20073;-69
2022/06/16 11:00:04;;;;;;;5.40;5.20;;;;;;;23.55;34.04;101747.38;6089124;23;20013;-74
2022/06/16 11:02:35;;;;;;;5.50;5.30;;;;;;;23.47;32.45;101748.94;6051944;23;20097;-71
2022/06/16 11:05:12;;;;;;;5.57;5.32;;;;;;;23.65;33.39;101741.06;6053820;23;20991;-68
2022/06/16 11:07:44;;;;;;;5.20;5.00;;;;;;;23.80;33.59;101736.13;6050218;23;20015;-69
2022/06/16 11:10:27;;;;;;;6.60;6.30;;;;;;;23.68;33.22;101739.91;6082921;23;20029;-74
2022/06/16 11:12:54;;;;;;;5.57;5.28;;;;;;;23.30;33.65;101744.25;6046018;23;20041;-68
2022/06/16 11:15:23;;;;;;;5.25;5.05;;;;;;;23.89;34.15;101740.66;6076772;23;20101;-69
2022/06/16 11:17:55;;;;;;;5.28;5.07;;;;;;;23.60;32.59;101734.41;6057542;23;20448;-69
2022/06/16 11:20:26;;;;;;;5.37;5.17;;;;;;;23.49;35.00;101714.81;6078345;23;20018;-71
2022/06/16 11:22:56;;;;;;;5.50;5.30;;;;;;;24.20;32.59;101748.53;6058037;23;20775;-75
2022/06/16 11:25:30;;;;;;;5.53;5.32;;;;;;;23.79;32.32;101734.44;6079433;23;20038;-74
2022/06/16 11:27:59;;;;;;;5.57;5.28;;;;;;;24.13;32.17;101752.75;6044589;23;20023;-73
2022/06/16 11:30:47;;;;;;;5.50;5.20;;;;;;;23.85;33.39;101755.34;6074651;23;20116;-71
2022/06/16 11:34:06;;;;;;;6.82;6.40;;;;;;;23.95;33.88;101754.47;6032723;23;20091;-72
2022/06/16 11:36:32;;;;;;;6.78;6.45;;;;;;;23.85;31.80;101762.50;6080439;23;20406;-68
2022/06/16 11:39:22;;;;;;;5.15;4.95;;;;;;;24.02;32.09;101760.97;6018441;23;20097;-68
2022/06/16 11:41:51;;;;;;;5.35;5.15;;;;;;;24.19;32.53;101748.66;6080734;23;20069;-67
2022/06/16 11:44:20;;;;;;;6.57;6.25;;;;;;;24.16;32.93;101749.81;6083161;23;20018;-67
2022/06/16 11:46:54;;;;;;;5.40;5.20;;;;;;;24.35;32.68;101716.72;6079224;23;20022;-67
2022/06/16 11:49:45;;;;;;;5.60;5.40;;;;;;;24.55;32.13;101687.16;6072195;23;20026;-67
2022/06/16 11:52:53;;;;;;;6.93;6.60;;;;;;;25.17;31.84;101754.56;6051542;23;20353;-67
2022/06/16 11:55:32;;;;;;;6.50;6.20;;;;;;;24.94;31.22;101748.72;5930672;24;20012;-70
2022/06/16 11:58:34;;;;;;;5.88;5.57;;;;;;;24.62;31.32;101744.66;6033980;23;20593;-71
2022/06/16 12:01:05;;;;;;;5.57;5.28;;;;;;;24.60;30.88;101762.75;6081748;23;20341;-67
2022/06/16 12:03:46;;;;;;;6.07;5.78;;;;;;;24.28;32.46;101753.19;6045893;23;20059;-67
2022/06/16 12:06:28;;;;;;;7.80;7.40;;;;;;;24.42;33.18;101743.81;6079317;23;20416;-67
2022/06/16 12:09:00;;;;;;;5.28;5.07;;;;;;;24.00;32.16;101745.03;6054155;23;20345;-67
2022/06/16 12:11:39;;;;;;;5.30;5.10;;;;;;;24.29;32.68;101739.63;6047840;23;20061;-67
2022/06/16 12:14:34;;;;;;;5.63;5.43;;;;;;;24.29;31.24;101734.25;6041331;23;20022;-67